Flight Track Log - Related Links

Times and Time Zones

All times are in EDT time to prevent confusion due to time zone crossing. See the N123TF flight status page for this flight to view local times or setup timezone preferences in your user account.

Time Position Orientation Groundspeed Altitude Reporting Facility
EDT Latitude Longitude Course Direction KTS MPH feet Rate Location/Type
Mon 01:48:54 PM 38.1436 -122.3039 104° East 201 231 3,200  Level Oakland Center
Mon 01:49:55 PM 38.0936 -122.2692 151° Southeast 207 238 4,500 1,512 Climbing Oakland Center
Mon 01:50:57 PM 38.0919 -122.1822 91° East 241 277 6,300 1,902 Climbing Oakland Center
Mon 01:51:58 PM 38.1181 -122.1214 61° Northeast 202 232 8,400 1,918 Climbing Oakland Center
Mon 01:52:00 PM 38.0704 -121.4917 106° East  Level FlightAware Approximate
Mon 01:52:59 PM 38.1247 -122.0494 83° East 222 255 10,200  Level Oakland Center
Mon 01:53:00 PM 38.0500 -121.3803 90° East  Level FlightAware Approximate
Mon 01:54:00 PM 38.0304 -121.2686 104° East  Level FlightAware Approximate
Mon 01:54:01 PM 38.1114 -121.9736 103° East 221 254 11,900  Level Oakland Center
Mon 01:55:02 PM 38.1228 -121.8997 79° East 213 245 13,600 1,756 Climbing Oakland Center
Mon 01:56:04 PM 38.1372 -121.8092 79° East 217 250 15,500 1,610 Climbing Oakland Center
Mon 01:57:05 PM 38.1494 -121.7314 79° East 223 257 16,900 1,317 Climbing Oakland Center
Mon 01:58:07 PM 38.1647 -121.6511 76° East 233 268 18,200 1,317 Climbing Oakland Center
Mon 01:59:08 PM 38.1800 -121.5669 77° East 242 278 19,600 1,317 Climbing Oakland Center
Mon 02:00:10 PM 38.1942 -121.4864 77° East 245 282 20,900 1,220 Climbing Oakland Center
Mon 02:01:11 PM 38.2100 -121.3986 77° East 253 291 22,100 1,171 Climbing Oakland Center
Mon 02:02:13 PM 38.2250 -121.3086 78° East 260 299 23,300 1,268 Climbing Oakland Center
Mon 02:03:14 PM 38.2042 -121.1981 103° East 269 310 24,700 829 Climbing Oakland Center
Mon 02:04:16 PM 38.1867 -121.1011 103° East 280 322 25,000 146 Climbing Oakland Center
Mon 02:05:17 PM 38.1672 -120.9903 103° East 317 365 25,000 689 Level Oakland Center
Mon 02:06:18 PM 38.1467 -120.8769 103° East 329 379 26,400 976 Climbing Oakland Center
Mon 02:07:20 PM 38.1492 -120.7814 88° East 290 334 27,000 293 Climbing Oakland Center
Mon 02:08:21 PM 38.1428 -120.6733 94° East 318 366 27,000 98 Level Oakland Center
Mon 02:09:23 PM 38.1211 -120.5575 103° East 334 384 27,200 1,317 Climbing Oakland Center
Mon 02:10:24 PM 38.0981 -120.4400 104° East 279 321 29,700 1,756 Climbing Oakland Center
Mon 02:11:26 PM 38.0803 -120.3461 103° East 275 316 30,800 1,024 Climbing Oakland Center
Mon 02:12:27 PM 38.0617 -120.2547 104° East 267 307 31,800 976 Climbing Oakland Center
Mon 02:13:29 PM 38.0439 -120.1608 103° East 272 313 32,800 976 Climbing Oakland Center
Mon 02:14:30 PM 38.0278 -120.0703 103° East 264 304 33,800 885 Climbing Oakland Center
Mon 02:15:31 PM 38.0103 -119.9814 104° East 263 303 34,600 585 Climbing Oakland Center
Mon 02:16:33 PM 37.9906 -119.8919 106° East 264 304 35,000 195 Climbing Oakland Center
Mon 02:17:34 PM 37.9706 -119.7939 104° East 288 331 35,000  Level Oakland Center
Mon 02:18:36 PM 37.9489 -119.6872 104° East 310 357 35,000  Level Oakland Center
Mon 02:19:37 PM 37.9225 -119.5525 104° East 329 379 35,000  Level Oakland Center
Mon 02:20:38 PM 37.8975 -119.4389 106° East 335 386 35,000  Level Oakland Center
Mon 02:21:40 PM 37.8744 -119.3228 104° East 339 390 35,000  Level Oakland Center
Mon 02:22:41 PM 37.8489 -119.2044 105° East 346 398 35,000  Level Oakland Center
Mon 02:23:43 PM 37.8244 -119.0867 105° East 347 399 35,000  Level Oakland Center
Mon 02:24:44 PM 37.7994 -118.9683 105° East 348 400 35,000  Level Oakland Center
Mon 02:25:46 PM 37.7753 -118.8500 104° East 347 399 35,000  Level Oakland Center
Mon 02:26:47 PM 37.7486 -118.7225 105° East 345 397 35,000  Level Oakland Center
Mon 02:27:49 PM 37.7228 -118.6061 106° East 345 397 35,000  Level Oakland Center
Mon 02:28:50 PM 37.6994 -118.4903 104° East 341 392 35,000  Level Oakland Center
Mon 02:29:52 PM 37.6736 -118.3747 106° East 343 395 35,000  Level Oakland Center
Mon 02:30:53 PM 37.6481 -118.2589 106° East 343 395 35,000  Level Oakland Center
Mon 02:31:54 PM 37.6183 -118.1208 105° East 341 392 35,000  Level Oakland Center
Mon 02:32:56 PM 37.5931 -118.0056 105° East 342 394 35,000  Level Oakland Center
Mon 02:33:58 PM 37.5672 -117.8903 106° East 342 394 35,000  Level Oakland Center
Mon 02:34:59 PM 37.5422 -117.7758 105° East 342 394 35,000  Level Oakland Center
Mon 02:36:01 PM 37.5164 -117.6594 106° East 345 397 35,000  Level Oakland Center
Mon 02:37:02 PM 37.4911 -117.5450 106° East 342 394 35,000  Level Oakland Center
Mon 02:38:04 PM 37.4644 -117.4289 106° East 346 398 35,000  Level Oakland Center
Mon 02:39:05 PM 37.4381 -117.3133 106° East 345 397 35,000  Level Oakland Center
Mon 02:40:07 PM 37.3525 -117.2156 138° Southeast 360 414 35,000  Level Oakland Center
Mon 02:41:08 PM 37.2706 -117.1419 144° Southeast 361 415 35,000  Level Oakland Center
Mon 02:42:10 PM 37.1878 -117.0722 146° Southeast 361 415 35,000  Level Oakland Center
Mon 02:43:11 PM 37.1053 -117.0033 146° Southeast 358 412 35,000  Level Oakland Center
Mon 02:44:13 PM 37.0225 -116.9328 146° Southeast 357 411 35,000  Level Oakland Center
Mon 02:45:15 PM 36.9394 -116.8633 146° Southeast 358 412 35,000  Level Los Angeles Center
Mon 02:46:18 PM 36.8556 -116.7944 147° Southeast 360 414 35,000  Level Los Angeles Center
Mon 02:47:20 PM 36.7761 -116.6864 133° Southeast 356 410 35,000  Level Los Angeles Center
Mon 02:48:22 PM 36.7311 -116.5783 117° Southeast 353 406 35,000  Level Los Angeles Center
Mon 02:49:24 PM 36.6850 -116.4697 118° Southeast 352 405 35,000  Level Los Angeles Center
Mon 02:50:26 PM 36.6400 -116.3603 117° Southeast 355 409 35,000  Level Los Angeles Center
Mon 02:51:28 PM 36.5947 -116.2517 117° Southeast 355 409 35,000  Level Los Angeles Center
Mon 02:52:30 PM 36.5483 -116.1431 118° Southeast 355 409 35,000  Level Los Angeles Center
Mon 02:53:32 PM 36.4994 -116.0092 114° Southeast 356 410 35,000  Level Los Angeles Center
Mon 02:54:34 PM 36.4700 -115.8947 108° East 350 403 35,000  Level Los Angeles Center
Mon 02:55:37 PM 36.4386 -115.7772 108° East 349 402 35,000  Level Los Angeles Center
Mon 02:56:39 PM 36.4069 -115.6608 109° East 352 405 35,000  Level Los Angeles Center
Mon 02:57:41 PM 36.3761 -115.5511 109° East 351 404 35,000  Level Los Angeles Center
Mon 02:58:43 PM 36.3725 -115.4169 92° East 356 410 35,000  Level Los Angeles Center
Mon 02:59:45 PM 36.3672 -115.2997 93° East 342 394 35,000  Level Los Angeles Center
Mon 03:00:47 PM 36.3617 -115.1781 93° East 349 402 35,000  Level Los Angeles Center
Mon 03:01:49 PM 36.3567 -115.0589 93° East 348 400 35,000  Level Los Angeles Center
Mon 03:02:51 PM 36.3503 -114.9169 93° East 344 396 35,000  Level Los Angeles Center
Mon 03:03:53 PM 36.3439 -114.7972 94° East 346 398 35,000  Level Los Angeles Center
Mon 03:04:55 PM 36.3381 -114.6783 93° East 345 397 35,000  Level Los Angeles Center
Mon 03:05:58 PM 36.3328 -114.5594 93° East 345 397 35,000  Level Los Angeles Center
Mon 03:07:00 PM 36.3267 -114.4406 94° East 346 398 35,000  Level Los Angeles Center
Mon 03:08:02 PM 36.3208 -114.3208 93° East 347 399 35,000  Level Los Angeles Center
Mon 03:09:04 PM 36.3136 -114.1783 94° East 346 398 35,000  Level Los Angeles Center
Mon 03:10:06 PM 36.3072 -114.0592 94° East 346 398 35,000  Level Los Angeles Center
Mon 03:11:08 PM 36.3000 -113.9394 94° East 347 399 35,000  Level Los Angeles Center
Mon 03:12:10 PM 36.2947 -113.8208 93° East 346 398 35,000  Level Los Angeles Center
Mon 03:13:12 PM 36.2869 -113.7022 95° East 346 398 35,000  Level Los Angeles Center
Mon 03:14:15 PM 36.2803 -113.5828 94° East 347 399 35,000  Level Los Angeles Center
Mon 03:15:17 PM 36.2722 -113.4397 94° East 347 399 35,000  Level Los Angeles Center
Mon 03:16:19 PM 36.2658 -113.3206 94° East 346 398 35,000  Level Los Angeles Center
Mon 03:17:21 PM 36.2594 -113.2008 94° East 347 399 35,000  Level Los Angeles Center
Mon 03:18:23 PM 36.2506 -113.0828 95° East 346 398 35,000  Level Los Angeles Center
Mon 03:19:26 PM 36.2436 -112.9644 94° East 345 397 35,000  Level Los Angeles Center
Mon 03:20:27 PM 36.2372 -112.8442 94° East 346 398 35,000  Level Los Angeles Center
Mon 03:21:29 PM 36.2286 -112.7253 95° East 347 399 35,000  Level Los Angeles Center
Mon 03:22:31 PM 36.2189 -112.5836 95° East 346 398 35,000  Level Los Angeles Center
Mon 03:23:34 PM 36.2114 -112.4656 94° East 346 398 35,000  Level Los Angeles Center
Mon 03:24:36 PM 36.2042 -112.3481 94° East 345 397 35,000  Level Los Angeles Center
Mon 03:25:38 PM 36.1953 -112.2292 95° East 345 397 35,000  Level Los Angeles Center
Mon 03:26:40 PM 36.1872 -112.1103 95° East 347 399 35,000  Level Los Angeles Center
Mon 03:27:42 PM 36.1772 -111.9689 95° East 347 399 35,000  Level Los Angeles Center
Mon 03:28:44 PM 36.1678 -111.8500 96° East 346 398 35,000  Level Los Angeles Center
Mon 03:29:46 PM 36.1600 -111.7325 95° East 346 398 35,000  Level Los Angeles Center
Mon 03:30:48 PM 36.1511 -111.6142 95° East 347 399 35,000  Level Los Angeles Center
Mon 03:31:51 PM 36.1425 -111.4967 95° East 345 397 35,000  Level Los Angeles Center
Mon 03:32:56 PM 36.1325 -111.3506 95° East 346 398 35,000  Level Denver Center
Mon 03:33:57 PM 36.1239 -111.2372 95° East 346 398 35,000  Level Denver Center
Mon 03:34:59 PM 36.1150 -111.1239 96° East 346 398 35,000  Level Denver Center
Mon 03:36:01 PM 36.1033 -110.9917 96° East 346 398 35,000  Level Denver Center
Mon 03:37:03 PM 36.0950 -110.8775 95° East 347 399 35,000  Level Denver Center
Mon 03:38:04 PM 36.0881 -110.7844 95° East 345 397 35,000  Level Denver Center
Mon 03:39:06 PM 36.0753 -110.6336 96° East 345 397 35,000  Level Denver Center
Mon 03:40:08 PM 36.0647 -110.5003 96° East 347 399 35,000  Level Denver Center
Mon 03:41:09 PM 36.0556 -110.3861 96° East 348 400 35,000  Level Denver Center
Mon 03:42:11 PM 36.0456 -110.2711 96° East 350 403 35,000  Level Denver Center
Mon 03:43:13 PM 36.0342 -110.1378 96° East 351 404 35,000  Level Denver Center
Mon 03:44:15 PM 36.0242 -110.0225 96° East 351 404 35,000  Level Denver Center
Mon 03:45:16 PM 36.0119 -109.8864 96° East 354 407 35,000  Level Denver Center
Mon 03:46:18 PM 36.0017 -109.7706 96° East 355 409 35,000  Level Denver Center
Mon 03:47:20 PM 35.9894 -109.6364 96° East 352 405 35,000  Level Denver Center
Mon 03:48:22 PM 35.9794 -109.5200 96° East 355 409 35,000  Level Denver Center
Mon 03:49:23 PM 35.9681 -109.3850 96° East 354 407 35,000  Level Denver Center
Mon 03:50:25 PM 35.9564 -109.2692 97° East 355 409 35,000  Level Denver Center
Mon 03:51:27 PM 35.9453 -109.1528 97° East 358 412 35,000  Level Denver Center
Mon 03:52:29 PM 35.9328 -109.0164 96° East 360 414 35,000  Level Denver Center
Mon 03:53:30 PM 35.9217 -108.8997 97° East 362 417 35,000  Level Denver Center
Mon 03:54:32 PM 35.9081 -108.7636 97° East 364 419 35,000  Level Denver Center
Mon 03:55:34 PM 35.8978 -108.6467 96° East 363 418 35,000 -242 Level Denver Center
Mon 03:56:36 PM 35.8842 -108.5100 97° East 361 415 34,500 -537 Descending Denver Center
Mon 03:57:37 PM 35.8714 -108.3886 97° East 371 427 33,900 -780 Descending Denver Center
Mon 03:58:39 PM 35.8594 -108.2675 97° East 371 427 32,900 -1,016 Descending Denver Center
Mon 03:59:41 PM 35.8458 -108.1306 97° East 365 420 31,800 -1,317 Descending Denver Center
Mon 04:00:42 PM 35.8311 -107.9944 98° East 360 414 30,200 -1,366 Descending Denver Center
Mon 04:01:44 PM 35.8192 -107.8767 97° East 362 417 29,000 -726 Descending Denver Center
Mon 04:02:46 PM 35.8056 -107.7481 97° East 345 397 28,700 -823 Descending Denver Center
Mon 04:03:48 PM 35.7942 -107.6389 97° East 336 387 27,300 -1,366 Descending Denver Center
Mon 04:04:49 PM 35.7817 -107.5244 98° East 348 400 25,900 -1,500 Descending Denver Center
Mon 04:05:04 PM 35.7767 -107.4867 99° East 351 404 25,400 -1,558 Descending Albuquerque Center
Mon 04:06:06 PM 35.7639 -107.3733 98° East 352 405 23,900 -1,500 Descending Albuquerque Center
Mon 04:07:08 PM 35.7506 -107.2408 97° East 350 403 22,300 -1,500 Descending Albuquerque Center
Mon 04:08:10 PM 35.7367 -107.1289 99° East 347 399 20,800 -1,561 Descending Albuquerque Center
Mon 04:09:11 PM 35.7222 -106.9961 98° East 350 403 19,100 -1,512 Descending Albuquerque Center
Mon 04:10:13 PM 35.7317 -106.8833 84° East 350 403 17,700 -1,403 Descending Albuquerque Center
Mon 04:11:15 PM 35.7419 -106.7719 83° East 334 384 16,200 -1,306 Descending Albuquerque Center
Mon 04:12:17 PM 35.7519 -106.6747 83° East 300 345 15,000 -1,065 Descending Albuquerque Center
Mon 04:13:19 PM 35.7397 -106.5811 99° East 300 345 14,000 -484 Descending Albuquerque Center
Mon 04:14:21 PM 35.7125 -106.4772 108° East 271 312 14,000  Level Albuquerque Center
Mon 04:15:23 PM 35.6908 -106.3842 106° East 279 321 14,000 -968 Level Albuquerque Center
Mon 04:16:25 PM 35.6678 -106.2911 107° East 283 326 12,000 -1,935 Descending Albuquerque Center
Mon 04:17:27 PM 35.6444 -106.1964 107° East 287 330 10,000 -1,790 Descending Albuquerque Center
Mon 04:18:29 PM 35.6497 -106.1353 84° East 242 278 8,300 -1,065 Descending Albuquerque Center
Mon 04:19:31 PM 35.6697 -106.0947 59° Northeast 183 211 7,800 -726 Descending Albuquerque Center
Mon 04:20:33 PM 35.6431 -106.0656 138° Southeast 153 176 6,800 -968 Descending Albuquerque Center
Mon 04:22:00 PM 35.6167 -106.0833 238° Southwest  Level FlightAware Approximate

Login

Don't have an account? Register now (free) for customized features, flight alerts, and more!